Bethesda, Ohio
Current Conditions -  °F | °C
As of 10:53 AM on Sunday 23 Nov 2014 (Local Time) from KHLG Reporting Station
Broken Clouds Broken Clouds  
Wind Chill: 59°   Ceiling: 9500
Heat Index: 59°   Visibility: 10mi
Dew Point: 37°   Wind: 10mph
Humidity: 44%   Direction: 190°S
Pressure: 30.03"   Gusts: NA
Location:  40.02°N, 81.07°W
Report Text: KHLG 231553Z 19009KT 10SM BKN095 15/03 A3003 RMK AO2 SLP172 T01500028
Loading
Personal Weather Stations






























Interactive Weather Map New forecast layout! Learn more

10-Day Weather Forecast

Advertisements
Track Severe Weather on mobile